Time;durP1;ratioP1;P1;durP2;ratioP2;P2;SDS_P1;SDS_P2;PMS_P1;PMS_P2;Temp;Humidity;BMP_temperature;BMP_pressure;BME280_temperature;BME280_humidity;BME280_pressure;Samples;Min_cycle;Max_cycle;Signal;HPM_P1;HPM_P2
2019/06/16 16:36:18;;;;;;;3.4;2.2;;;;;;;20.69;63.62598;965.5142;;;;
2019/06/16 16:39:18;;;;;;;2.5;2.2;;;;;;;20.64;62.52539;965.509;;;;
2019/06/16 16:41:43;;;;;;;1.9;1.8;;;;;;;20.53;64.14453;965.4988;;;;
2019/06/16 16:44:08;;;;;;;2.4;2.2;;;;;;;20.51;63.61328;965.4561;;;;
2019/06/16 16:46:33;;;;;;;2.8;2.2;;;;;;;20.55;64.21875;965.4587;;;;
2019/06/16 16:48:58;;;;;;;4.4;2.5;;;;;;;20.47;64.57227;965.4575;;;;
2019/06/16 16:51:23;;;;;;;3;2.5;;;;;;;20.39;63.80762;965.5359;;;;
2019/06/16 16:54:23;;;;;;;3.7;2.5;;;;;;;20.1;66.6123;965.6306;;;;
2019/06/16 16:56:48;;;;;;;4;2.9;;;;;;;20.03;66.44922;965.6262;;;;
2019/06/16 16:59:14;;;;;;;4.3;2.5;;;;;;;20.1;65.25977;965.682;;;;
2019/06/16 17:01:39;;;;;;;4;2.7;;;;;;;20.06;64.67676;965.6541;;;;
2019/06/16 17:04:04;;;;;;;5.8;2.7;;;;;;;20.15;65.77246;965.6376;;;;
2019/06/16 17:06:29;;;;;;;3.1;2.5;;;;;;;19.99;64.73828;965.677;;;;
2019/06/16 17:08:54;;;;;;;2.7;2.5;;;;;;;20.08;64.49121;965.7054;;;;
2019/06/16 17:11:19;;;;;;;4.6;2.8;;;;;;;19.93;65.51855;965.7114;;;;
2019/06/16 17:13:44;;;;;;;2.8;2.5;;;;;;;20.04;63.95801;965.6809;;;;
2019/06/16 17:16:09;;;;;;;3;2.7;;;;;;;19.95;65.94336;965.7404;;;;
2019/06/16 17:23:28;;;;;;;3.9;3.4;;;;;;;19.78;66.44824;965.7407;;;;
2019/06/16 17:25:54;;;;;;;4;3.3;;;;;;;19.85;66.61035;965.8022;;;;
2019/06/16 17:28:25;;;;;;;4.7;3.4;;;;;;;19.75;67.79395;965.7509;;;;
2019/06/16 17:30:40;;;;;;;4.6;3.3;;;;;;;19.74;67.69727;965.7053;;;;
2019/06/16 17:33:05;;;;;;;5.2;3.5;;;;;;;20.09;65.42285;965.7391;;;;
2019/06/16 17:35:30;;;;;;;4.3;3.2;;;;;;;19.79;66.0498;965.7413;;;;
2019/06/16 17:37:56;;;;;;;3.6;3.2;;;;;;;19.45;67.14844;965.7608;;;;
2019/06/16 17:50:16;;;;;;;4.3;3.7;;;;;;;19.85;67.22168;965.6691;;;;
2019/06/16 17:52:43;;;;;;;6;3.5;;;;;;;19.73;68.35547;965.7293;;;;
2019/06/16 17:55:14;;;;;;;5.6;3.4;;;;;;;19.78;66.64746;965.6746;;;;
2019/06/16 17:57:35;;;;;;;5;3.4;;;;;;;19.8;67.34375;965.651;;;;
2019/06/16 17:59:56;;;;;;;3.7;3.1;;;;;;;19.85;66.56348;965.6119;;;;
2019/06/16 18:02:22;;;;;;;3.7;3;;;;;;;19.62;67.45801;965.6082;;;;
2019/06/16 18:04:46;;;;;;;3.9;3;;;;;;;19.69;67.85449;965.6892;;;;
2019/06/16 18:07:12;;;;;;;3.9;3;;;;;;;19.71;67.64648;965.6831;;;;
2019/06/16 18:09:37;;;;;;;4;2.9;;;;;;;19.97;65.60449;965.6342;;;;
2019/06/16 18:12:03;;;;;;;3.6;3.3;;;;;;;19.83;66.18457;965.6428;;;;
2019/06/16 18:14:28;;;;;;;4;3.2;;;;;;;19.55;66.91797;965.617;;;;
2019/06/16 18:16:53;;;;;;;3.2;2.8;;;;;;;19.65;67.01367;965.6315;;;;
2019/06/16 18:19:18;;;;;;;4;3.2;;;;;;;19.48;68.26953;965.6704;;;;
2019/06/16 18:21:43;;;;;;;3.4;3.1;;;;;;;19.59;67.81738;965.6384;;;;
2019/06/16 18:24:08;;;;;;;3.9;3.4;;;;;;;19.53;68.45313;965.6625;;;;
2019/06/16 18:26:33;;;;;;;4.5;3.3;;;;;;;19.55;67.61133;965.6584;;;;
2019/06/16 18:28:58;;;;;;;3.3;2.9;;;;;;;19.49;68.42383;965.6721;;;;
2019/06/16 18:31:24;;;;;;;5;3.1;;;;;;;19.56;68.05859;965.6303;;;;
2019/06/16 18:33:49;;;;;;;5.6;3;;;;;;;19.53;68.25293;965.608;;;;
2019/06/16 18:36:14;;;;;;;4.6;3.1;;;;;;;19.52;68.33496;965.627;;;;
2019/06/16 18:38:39;;;;;;;4.3;2.8;;;;;;;19.44;69.48535;965.617;;;;
2019/06/16 18:41:04;;;;;;;4.2;2.8;;;;;;;19.54;67.65625;965.5535;;;;
2019/06/16 18:43:29;;;;;;;4.1;2.9;;;;;;;19.38;68.46484;965.6063;;;;
2019/06/16 18:45:54;;;;;;;4.1;3.2;;;;;;;19.34;67.70703;965.5951;;;;
2019/06/16 18:48:20;;;;;;;5.3;3.6;;;;;;;19.23;68.37207;965.641;;;;
2019/06/16 18:50:44;;;;;;;4.6;3.4;;;;;;;19.42;67.41406;965.6519;;;;
2019/06/16 18:53:09;;;;;;;3.5;3.2;;;;;;;19.35;67.94336;965.685;;;;
2019/06/16 18:55:34;;;;;;;3.4;3.1;;;;;;;19.22;68.61719;965.6758;;;;
2019/06/16 18:58:00;;;;;;;4.2;3.6;;;;;;;19.17;69.20703;965.6975;;;;
2019/06/16 19:00:25;;;;;;;4.1;3;;;;;;;19.27;68.8584;965.7459;;;;
2019/06/16 19:02:50;;;;;;;4.3;3.5;;;;;;;19.23;68.64063;965.7344;;;;
2019/06/16 19:05:15;;;;;;;3.3;2.9;;;;;;;19.18;69.3623;965.7158;;;;
2019/06/16 19:07:40;;;;;;;5;3.5;;;;;;;19.2;69.93945;965.7139;;;;
2019/06/16 19:10:05;;;;;;;4.4;3.2;;;;;;;19.1;69.10352;965.7285;;;;
2019/06/16 19:12:30;;;;;;;3.6;3;;;;;;;19.15;69.13379;965.7936;;;;
2019/06/16 19:14:55;;;;;;;4.2;3.1;;;;;;;18.83;70.37305;965.803;;;;
2019/06/16 19:17:20;;;;;;;4;3.1;;;;;;;18.78;71.20898;965.7552;;;;
2019/06/16 19:19:46;;;;;;;4.4;3;;;;;;;18.65;71.81055;965.7727;;;;
2019/06/16 19:22:14;;;;;;;5.1;3.3;;;;;;;18.73;72.08203;965.8043;;;;
2019/06/16 19:27:08;;;;;;;4.8;3.1;;;;;;;19.21;69.36719;965.8777;;;;
2019/06/16 19:29:28;;;;;;;4;3;;;;;;;19.01;70.03809;965.8487;;;;
2019/06/16 19:31:53;;;;;;;3.4;3;;;;;;;18.99;69.92969;965.9106;;;;
2019/06/16 19:34:18;;;;;;;3.4;3.1;;;;;;;19.01;69.97949;965.895;;;;
2019/06/16 19:36:43;;;;;;;3.8;3.2;;;;;;;18.8;71.17676;965.9064;;;;
2019/06/16 19:39:08;;;;;;;3.3;3;;;;;;;18.8;71.21387;965.9113;;;;
2019/06/16 19:41:33;;;;;;;3.6;2.7;;;;;;;18.86;71.07129;965.9342;;;;
2019/06/16 19:43:58;;;;;;;3;2.7;;;;;;;18.76;71.69922;965.943;;;;
2019/06/16 19:46:23;;;;;;;3.3;2.9;;;;;;;18.75;72.27246;965.9303;;;;
2019/06/16 19:48:48;;;;;;;3.7;3.3;;;;;;;18.66;71.96387;965.9683;;;;
2019/06/16 19:51:13;;;;;;;4.1;3.1;;;;;;;18.73;72.51367;966.0089;;;;
2019/06/16 19:53:38;;;;;;;4.2;3.5;;;;;;;18.75;71.61523;966.0121;;;;
2019/06/16 19:56:03;;;;;;;3.8;3.4;;;;;;;18.68;72.20313;966.0575;;;;
2019/06/16 19:58:28;;;;;;;4.7;3.8;;;;;;;18.69;73.20117;966.0847;;;;
2019/06/16 20:00:54;;;;;;;3.8;3.4;;;;;;;18.65;74.10645;966.1567;;;;
2019/06/16 20:03:19;;;;;;;3.6;3.2;;;;;;;18.59;74.26172;966.1312;;;;
2019/06/16 20:05:44;;;;;;;5.8;3.7;;;;;;;18.59;75.68066;966.1188;;;;
2019/06/16 20:08:09;;;;;;;4.1;3.7;;;;;;;18.52;75.09375;966.1311;;;;
2019/06/16 20:10:34;;;;;;;5.5;4.2;;;;;;;18.6;73.6084;966.0906;;;;
2019/06/16 20:12:59;;;;;;;4.4;3.9;;;;;;;18.69;71.74707;966.097;;;;
2019/06/16 20:15:24;;;;;;;5.4;3.6;;;;;;;18.68;71.66406;966.1731;;;;
2019/06/16 20:17:49;;;;;;;4.8;3.4;;;;;;;18.46;72.97559;966.1512;;;;
2019/06/16 20:20:14;;;;;;;4.3;3.7;;;;;;;18.6;71.43945;966.1516;;;;
2019/06/16 20:22:39;;;;;;;3.7;3.3;;;;;;;18.51;72.32617;966.2238;;;;
2019/06/16 20:25:05;;;;;;;5.4;3.9;;;;;;;18.46;72.52832;966.1902;;;;
2019/06/16 20:27:30;;;;;;;3.9;3.5;;;;;;;18.4;73.10645;966.1884;;;;
2019/06/16 20:29:57;;;;;;;5.6;3.9;;;;;;;18.21;75.68555;966.2519;;;;
2019/06/16 20:32:22;;;;;;;4.3;3.7;;;;;;;18.17;74.10938;966.2553;;;;
2019/06/16 20:34:49;;;;;;;5.1;3.9;;;;;;;18.15;75.39453;966.2494;;;;
2019/06/16 20:37:14;;;;;;;5.6;3.9;;;;;;;18.06;76.05957;966.2609;;;;
2019/06/16 20:39:40;;;;;;;6.1;3.9;;;;;;;17.84;76.7334;966.2642;;;;
2019/06/16 20:42:06;;;;;;;4.7;4.3;;;;;;;18.08;76.11914;966.2355;;;;
2019/06/16 20:44:31;;;;;;;6;4;;;;;;;18.22;74.65723;966.2108;;;;
2019/06/16 20:46:56;;;;;;;4.2;3.8;;;;;;;18.2;74.31445;966.2405;;;;
2019/06/16 20:49:21;;;;;;;5.4;4.1;;;;;;;18.09;74.68066;966.3031;;;;
2019/06/16 20:51:46;;;;;;;4.8;4.2;;;;;;;18.12;73.63281;966.2949;;;;
2019/06/16 20:54:11;;;;;;;4.9;4.2;;;;;;;17.98;74.75781;966.2371;;;;
2019/06/16 20:56:39;;;;;;;4.9;4.4;;;;;;;18.03;75.45801;966.2699;;;;
2019/06/16 20:59:07;;;;;;;5;4.5;;;;;;;17.96;74.60059;966.2065;;;;
2019/06/16 21:01:35;;;;;;;5;4.2;;;;;;;17.94;74.86719;966.1923;;;;
2019/06/16 21:04:02;;;;;;;5.7;4;;;;;;;17.94;75.0293;966.1858;;;;
2019/06/16 21:06:25;;;;;;;4.7;3.9;;;;;;;17.96;76.41504;966.2205;;;;
2019/06/16 21:08:51;;;;;;;4.5;4.1;;;;;;;17.97;75.35352;966.2502;;;;
2019/06/16 21:11:16;;;;;;;5.4;4.8;;;;;;;17.95;74.43555;966.2206;;;;
2019/06/16 21:13:45;;;;;;;4.7;4.3;;;;;;;17.75;75.19824;966.1976;;;;
2019/06/16 21:16:10;;;;;;;6;4.2;;;;;;;17.7;75.69141;966.1505;;;;
2019/06/16 21:18:44;;;;;;;5.1;4.2;;;;;;;17.88;74.29492;966.114;;;;
2019/06/16 21:21:09;;;;;;;4.5;4.1;;;;;;;17.89;74.12109;966.1208;;;;
2019/06/16 21:23:34;;;;;;;5.7;4.5;;;;;;;17.76;75.55078;966.13;;;;
2019/06/16 21:26:01;;;;;;;5.5;4.3;;;;;;;17.5;75.84375;966.0931;;;;
2019/06/16 21:28:26;;;;;;;4.7;4.2;;;;;;;17.58;76.19629;966.0472;;;;
2019/06/16 21:30:51;;;;;;;5.2;4.7;;;;;;;17.78;74.83984;966.0826;;;;
2019/06/16 21:33:16;;;;;;;6.3;5.1;;;;;;;17.71;76.2998;966.0681;;;;
2019/06/16 21:35:41;;;;;;;5.4;4.9;;;;;;;17.6;76.09473;966.0902;;;;
2019/06/16 21:38:06;;;;;;;5.5;5;;;;;;;17.44;76.29004;966.0652;;;;
2019/06/16 21:40:31;;;;;;;5.4;4.9;;;;;;;17.57;75.85547;966.0391;;;;
2019/06/16 21:42:56;;;;;;;5.1;4.7;;;;;;;17.6;76.87793;966.0375;;;;
2019/06/16 21:45:22;;;;;;;5.2;4.7;;;;;;;17.45;76.99512;966.0173;;;;
2019/06/16 21:47:47;;;;;;;5.6;5;;;;;;;17.29;78.58984;965.9708;;;;
2019/06/16 21:50:12;;;;;;;6;5.4;;;;;;;17.08;78.81934;965.9475;;;;
2019/06/16 21:52:46;;;;;;;5.5;5;;;;;;;17.09;79.0332;965.9849;;;;
2019/06/16 21:55:02;;;;;;;6.6;5.4;;;;;;;17.11;79.41211;966.0253;;;;
2019/06/16 21:57:27;;;;;;;6.1;5.2;;;;;;;16.94;78.87891;965.9792;;;;
2019/06/16 21:59:52;;;;;;;5.9;5.3;;;;;;;16.93;80.05566;965.9675;;;;
2019/06/16 22:02:31;;;;;;;5.5;5;;;;;;;17.03;79.73438;965.8964;;;;
2019/06/16 22:04:42;;;;;;;6.7;5.8;;;;;;;16.95;79.46289;965.8862;;;;
2019/06/16 22:07:07;;;;;;;7.1;5.6;;;;;;;16.89;79.99023;965.8669;;;;
2019/06/16 22:09:37;;;;;;;7.1;5.8;;;;;;;16.92;80.19336;965.9091;;;;
2019/06/16 22:12:02;;;;;;;6.7;6;;;;;;;16.89;81.4502;965.9592;;;;
2019/06/16 22:14:27;;;;;;;6.5;5.9;;;;;;;16.83;82.02246;965.9292;;;;
2019/06/16 22:16:52;;;;;;;6.1;5.5;;;;;;;16.74;81.45703;965.9177;;;;
2019/06/16 22:19:17;;;;;;;6.5;5.9;;;;;;;16.87;80.62793;965.8786;;;;
2019/06/16 22:21:42;;;;;;;7.6;7;;;;;;;16.78;81.69727;965.9091;;;;
2019/06/16 22:24:07;;;;;;;7.6;6.9;;;;;;;16.7;82.90918;965.9185;;;;
2019/06/16 22:26:36;;;;;;;7.8;7;;;;;;;16.69;83.11621;965.9399;;;;
2019/06/16 22:29:01;;;;;;;8.3;7.1;;;;;;;16.69;82.91797;965.8845;;;;
2019/06/16 22:31:27;;;;;;;7.7;6.9;;;;;;;16.7;82.03223;965.9111;;;;
2019/06/16 22:33:52;;;;;;;8;7.3;;;;;;;16.7;81.99707;965.9242;;;;
2019/06/16 22:36:17;;;;;;;8.8;8;;;;;;;16.61;83.55566;965.9419;;;;
2019/06/16 22:38:42;;;;;;;8.5;7.7;;;;;;;16.54;82.36523;965.921;;;;
2019/06/16 22:41:07;;;;;;;8.7;7.8;;;;;;;16.51;82.96582;965.9414;;;;
2019/06/16 22:43:32;;;;;;;9.3;8.4;;;;;;;16.5;84.48047;965.9304;;;;
2019/06/16 22:45:57;;;;;;;9.2;8.4;;;;;;;16.64;82.4541;965.9774;;;;
2019/06/16 22:48:22;;;;;;;10.9;9.9;;;;;;;16.58;83.93555;965.9327;;;;
2019/06/16 22:50:47;;;;;;;10.3;9.3;;;;;;;16.53;83.42578;966.0161;;;;
2019/06/16 22:53:12;;;;;;;9.6;8.7;;;;;;;16.42;83.10156;966.0748;;;;
2019/06/16 22:55:37;;;;;;;11.2;10;;;;;;;16.41;83.00293;966.1191;;;;
2019/06/16 22:58:03;;;;;;;10;8.6;;;;;;;16.47;83.44824;966.1145;;;;
2019/06/16 23:00:28;;;;;;;8.6;7.8;;;;;;;16.49;83.43848;966.1189;;;;
2019/06/16 23:02:53;;;;;;;9;8.2;;;;;;;16.41;83.2832;966.1026;;;;
2019/06/16 23:05:21;;;;;;;9;7.6;;;;;;;16.41;83.56445;966.1149;;;;
2019/06/16 23:07:46;;;;;;;7.4;6.7;;;;;;;16.55;83.05566;966.1028;;;;
2019/06/16 23:10:11;;;;;;;7.9;7.2;;;;;;;16.37;83.87305;966.1131;;;;
2019/06/16 23:12:37;;;;;;;7.8;7;;;;;;;16.31;84.02441;966.1069;;;;
2019/06/16 23:15:03;;;;;;;8.2;7.4;;;;;;;16.36;84.06738;966.1136;;;;
2019/06/16 23:17:28;;;;;;;8.8;8;;;;;;;16.27;84.0625;966.0999;;;;
2019/06/16 23:19:53;;;;;;;9.8;8.9;;;;;;;16.18;85.03613;966.0967;;;;
2019/06/16 23:22:18;;;;;;;9.2;8.3;;;;;;;16.28;85.26465;966.0508;;;;
2019/06/16 23:24:43;;;;;;;8.6;7.8;;;;;;;16.24;84.70996;966.0478;;;;
2019/06/16 23:27:08;;;;;;;8.2;7.5;;;;;;;16.26;84.99512;966.0472;;;;
2019/06/16 23:29:35;;;;;;;10.3;9;;;;;;;16.17;85.08105;966.0441;;;;
2019/06/16 23:32:00;;;;;;;8.9;8.1;;;;;;;16.19;85.36426;966.0517;;;;
2019/06/16 23:34:27;;;;;;;9.5;8.6;;;;;;;16;86.22656;965.9694;;;;
2019/06/16 23:36:52;;;;;;;8.8;7.9;;;;;;;16.11;85.47852;965.9655;;;;
2019/06/16 23:39:18;;;;;;;7.9;7.2;;;;;;;16.24;84.47656;965.9384;;;;
2019/06/16 23:41:43;;;;;;;9.1;8.2;;;;;;;16.14;85.9502;965.9995;;;;
2019/06/16 23:44:09;;;;;;;8.7;7.9;;;;;;;16.15;84.61133;966.0134;;;;
2019/06/16 23:46:34;;;;;;;9;8.1;;;;;;;16.06;85.44434;966.0015;;;;
2019/06/16 23:49:02;;;;;;;8.3;7.6;;;;;;;16.07;85.83105;965.9489;;;;
2019/06/16 23:51:27;;;;;;;8.4;7.6;;;;;;;16.09;86.0332;965.9677;;;;
2019/06/16 23:53:52;;;;;;;8.3;7.5;;;;;;;16.13;84.91113;966.0011;;;;
2019/06/16 23:56:18;;;;;;;9.3;8.3;;;;;;;16.06;85.80566;965.9839;;;;
2019/06/16 23:58:43;;;;;;;9.1;8.2;;;;;;;16.05;86.43359;965.9207;;;;
